Time;durP1;ratioP1;P1;durP2;ratioP2;P2;SDS_P1;SDS_P2;PMS_P1;PMS_P2;Temp;Humidity;BMP_temperature;BMP_pressure;BME280_temperature;BME280_humidity;BME280_pressure;Samples;Min_cycle;Max_cycle;Signal;HPM_P1;HPM_P2
2022/02/07 00:19:06;;;;;;;12.23;10.63;;;;;;;;;;4580743;28;20115;-63
2022/02/07 00:21:33;;;;;;;12.93;11.05;;;;;;;;;;4190565;34;20221;-63
2022/02/07 00:23:59;;;;;;;12.35;10.90;;;;;;;;;;4184458;34;20133;-63
2022/02/07 00:26:25;;;;;;;10.82;9.60;;;;;;;;;;4177397;34;20103;-62
2022/02/07 00:28:53;;;;;;;11.18;9.95;;;;;;;;;;4177148;34;20090;-61
2022/02/07 00:31:19;;;;;;;10.68;9.57;;;;;;;;;;4177158;34;20122;-62
2022/02/07 00:33:45;;;;;;;11.80;9.98;;;;;;;;;;4177012;34;20113;-69
2022/02/07 00:36:14;;;;;;;11.23;10.07;;;;;;;;;;4177064;34;20090;-69
2022/02/07 00:38:42;;;;;;;11.38;10.18;;;;;;;;;;4177033;34;20214;-69
2022/02/07 00:41:25;;;;;;;12.40;9.68;;;;;;;;;;4176986;34;20102;-71
2022/02/07 00:43:58;;;;;;;11.65;10.20;;;;;;;;;;4176995;34;20118;-69
2022/02/07 00:46:33;;;;;;;13.07;10.50;;;;;;;;;;4176436;34;20527;-69
2022/02/07 00:48:59;;;;;;;11.70;9.55;;;;;;;;;;4177016;34;20107;-68
2022/02/07 00:51:25;;;;;;;9.95;8.90;;;;;;;;;;4177297;34;20099;-70
2022/02/07 00:53:51;;;;;;;11.40;9.00;;;;;;;;;;4186917;34;20758;-68
2022/02/07 00:56:17;;;;;;;12.52;8.90;;;;;;;;;;4186830;34;20607;-71
2022/02/07 00:58:43;;;;;;;11.15;8.75;;;;;;;;;;4176831;34;20519;-70
2022/02/07 01:01:09;;;;;;;10.05;8.60;;;;;;;;;;4175392;34;20114;-70
2022/02/07 01:03:35;;;;;;;10.65;9.02;;;;;;;;;;4186703;34;20187;-68
2022/02/07 01:06:01;;;;;;;10.65;9.40;;;;;;;;;;4176752;34;20091;-67
2022/02/07 01:08:50;;;;;;;10.98;9.57;;;;;;;;;;4175359;34;20503;-68
2022/02/07 01:11:35;;;;;;;12.02;10.30;;;;;;;;;;4176651;34;20118;-69
2022/02/07 01:47:08;;;;;;;9.95;8.30;;;;;;;;;;4176379;34;20202;-63
2022/02/07 01:54:58;;;;;;;10.90;9.77;;;;;;;;;;4176345;34;20115;-63
2022/02/07 01:57:25;;;;;;;10.20;9.00;;;;;;;;;;4185588;34;20106;-63
2022/02/07 01:59:52;;;;;;;11.00;8.95;;;;;;;;;;4178404;34;20558;-65
2022/02/07 02:02:18;;;;;;;11.12;9.77;;;;;;;;;;4178393;34;20122;-63
2022/02/07 02:04:44;;;;;;;11.05;8.40;;;;;;;;;;4178297;34;20596;-63
2022/02/07 02:07:10;;;;;;;10.82;9.55;;;;;;;;;;4178382;34;20099;-64
2022/02/07 02:09:36;;;;;;;12.27;10.05;;;;;;;;;;4188129;34;20121;-63
2022/02/07 02:12:04;;;;;;;11.45;10.25;;;;;;;;;;4188601;34;20853;-63
2022/02/07 02:39:04;;;;;;;10.52;7.87;;;;;;;;;;4178006;34;20522;-66
2022/02/07 02:47:17;;;;;;;9.88;8.77;;;;;;;;;;4178024;34;20121;-61
2022/02/07 02:49:48;;;;;;;10.90;9.80;;;;;;;;;;4177946;34;20138;-63
2022/02/07 02:52:14;;;;;;;15.68;10.88;;;;;;;;;;4177213;34;20095;-63
2022/02/07 02:54:40;;;;;;;13.27;11.43;;;;;;;;;;4177898;34;20126;-72
2022/02/07 02:57:06;;;;;;;12.07;9.85;;;;;;;;;;4187747;34;20110;-70
2022/02/07 02:59:32;;;;;;;12.80;11.07;;;;;;;;;;4178144;34;20523;-68
2022/02/07 03:01:58;;;;;;;12.40;10.98;;;;;;;;;;4177000;34;20142;-68
2022/02/07 03:04:24;;;;;;;16.33;11.65;;;;;;;;;;4177257;34;20117;-69
2022/02/07 03:06:50;;;;;;;14.30;12.80;;;;;;;;;;4177661;34;20105;-69
2022/02/07 03:09:17;;;;;;;15.13;13.07;;;;;;;;;;4177235;34;20578;-69
2022/02/07 03:11:44;;;;;;;13.62;11.75;;;;;;;;;;4188879;34;20101;-71
2022/02/07 03:14:19;;;;;;;15.30;12.52;;;;;;;;;;4191339;34;20113;-68
2022/02/07 03:16:45;;;;;;;14.45;12.95;;;;;;;;;;4189539;34;20113;-61
2022/02/07 03:19:13;;;;;;;17.75;14.25;;;;;;;;;;4191459;34;20114;-63
2022/02/07 03:21:40;;;;;;;15.18;13.60;;;;;;;;;;4178727;34;20478;-62
2022/02/07 03:24:07;;;;;;;17.02;14.18;;;;;;;;;;4191251;34;20214;-61
2022/02/07 03:26:38;;;;;;;17.37;14.20;;;;;;;;;;4189296;34;20121;-61
2022/02/07 03:29:06;;;;;;;14.82;12.98;;;;;;;;;;4190891;34;20217;-61
2022/02/07 03:31:32;;;;;;;15.80;13.80;;;;;;;;;;4189803;34;20282;-62
2022/02/07 03:33:58;;;;;;;14.65;13.13;;;;;;;;;;4178045;34;20204;-61
2022/02/07 03:36:28;;;;;;;18.10;12.80;;;;;;;;;;4191053;34;20114;-62
2022/02/07 03:38:55;;;;;;;18.33;13.23;;;;;;;;;;4191064;34;20296;-62
2022/02/07 03:41:21;;;;;;;16.05;12.85;;;;;;;;;;4191005;34;20219;-62
2022/02/07 03:43:47;;;;;;;15.73;12.88;;;;;;;;;;4176049;34;20145;-60
2022/02/07 03:46:13;;;;;;;16.40;13.13;;;;;;;;;;4177575;34;20130;-60
2022/02/07 03:48:39;;;;;;;16.70;14.10;;;;;;;;;;4175837;34;20130;-61
2022/02/07 03:51:05;;;;;;;14.87;13.25;;;;;;;;;;4177167;34;20218;-62
2022/02/07 03:53:31;;;;;;;16.60;13.77;;;;;;;;;;4177251;34;20161;-61
2022/02/07 03:55:58;;;;;;;19.85;15.57;;;;;;;;;;4163705;34;20118;-62
2022/02/07 03:58:24;;;;;;;18.30;14.57;;;;;;;;;;4163605;34;20134;-62
2022/02/07 04:00:52;;;;;;;18.58;14.65;;;;;;;;;;4162988;34;20114;-62
2022/02/07 04:03:21;;;;;;;18.30;14.48;;;;;;;;;;4161566;34;20139;-62
2022/02/07 04:05:55;;;;;;;18.52;14.18;;;;;;;;;;4161737;34;20121;-60
2022/02/07 04:08:27;;;;;;;18.60;14.48;;;;;;;;;;4170787;34;20121;-60
2022/02/07 04:11:06;;;;;;;20.33;15.18;;;;;;;;;;4162553;34;20099;-61
2022/02/07 04:13:34;;;;;;;18.40;14.60;;;;;;;;;;4173509;34;20563;-62
2022/02/07 04:16:02;;;;;;;17.90;13.80;;;;;;;;;;4163575;34;20110;-62
2022/02/07 04:18:33;;;;;;;16.65;13.98;;;;;;;;;;4173139;34;20189;-62
2022/02/07 04:21:00;;;;;;;19.33;13.80;;;;;;;;;;4162697;34;20118;-62
2022/02/07 04:23:26;;;;;;;17.83;13.75;;;;;;;;;;4163546;34;20091;-61
2022/02/07 04:25:52;;;;;;;18.45;13.98;;;;;;;;;;4162190;34;20106;-61
2022/02/07 04:28:19;;;;;;;17.30;14.15;;;;;;;;;;4166908;34;20250;-61
2022/02/07 04:30:45;;;;;;;17.98;13.75;;;;;;;;;;4176990;34;20105;-61
2022/02/07 04:33:11;;;;;;;17.00;13.93;;;;;;;;;;4164480;34;20114;-61
2022/02/07 04:35:37;;;;;;;16.02;13.30;;;;;;;;;;4175693;34;20125;-61
2022/02/07 04:38:03;;;;;;;18.70;14.70;;;;;;;;;;4176808;34;20194;-61
2022/02/07 04:40:29;;;;;;;16.02;13.10;;;;;;;;;;4177082;34;20130;-63
2022/02/07 04:42:55;;;;;;;18.80;13.68;;;;;;;;;;4176827;34;20119;-61
2022/02/07 04:45:36;;;;;;;16.55;14.05;;;;;;;;;;4176936;34;20141;-61
2022/02/07 04:51:12;;;;;;;15.80;13.38;;;;;;;;;;4176868;34;20737;-61
2022/02/07 04:53:54;;;;;;;15.82;12.93;;;;;;;;;;4176602;34;20110;-62
2022/02/07 04:59:02;;;;;;;16.67;13.10;;;;;;;;;;4163141;34;20122;-61
2022/02/07 05:03:59;;;;;;;16.00;12.93;;;;;;;;;;4163010;34;20127;-61
2022/02/07 05:14:42;;;;;;;14.68;11.73;;;;;;;;;;4163099;34;20119;-62
2022/02/07 05:17:09;;;;;;;16.42;13.48;;;;;;;;;;4162981;34;20111;-62
2022/02/07 05:19:35;;;;;;;14.45;12.20;;;;;;;;;;4162574;34;20203;-62
2022/02/07 05:22:01;;;;;;;14.50;11.18;;;;;;;;;;4162843;34;20126;-62
2022/02/07 05:24:27;;;;;;;13.52;11.65;;;;;;;;;;4162596;34;20552;-62
2022/02/07 05:26:53;;;;;;;12.35;11.10;;;;;;;;;;4162742;34;20114;-62
2022/02/07 05:29:19;;;;;;;12.30;10.43;;;;;;;;;;4162695;34;20110;-62
2022/02/07 05:31:45;;;;;;;13.77;11.73;;;;;;;;;;4163324;34;20122;-62
2022/02/07 05:34:11;;;;;;;14.00;11.43;;;;;;;;;;4164763;34;20138;-62
2022/02/07 05:36:42;;;;;;;12.63;11.10;;;;;;;;;;4164951;34;20105;-63
2022/02/07 05:39:15;;;;;;;12.05;10.70;;;;;;;;;;4164935;34;20138;-63
2022/02/07 05:41:42;;;;;;;12.98;10.93;;;;;;;;;;4164768;34;20202;-63
2022/02/07 05:44:08;;;;;;;13.65;10.75;;;;;;;;;;4164531;34;20560;-64
2022/02/07 05:46:34;;;;;;;13.02;11.12;;;;;;;;;;4164992;34;20440;-63
2022/02/07 05:49:00;;;;;;;13.95;10.95;;;;;;;;;;4164599;34;20106;-64
2022/02/07 05:51:26;;;;;;;14.07;11.20;;;;;;;;;;4164689;34;20211;-64
2022/02/07 05:53:52;;;;;;;15.73;11.65;;;;;;;;;;4165145;34;20114;-62
2022/02/07 05:56:18;;;;;;;15.63;12.55;;;;;;;;;;4178261;34;20527;-68
2022/02/07 05:58:44;;;;;;;14.70;11.93;;;;;;;;;;4187986;34;20187;-69
2022/02/07 06:01:11;;;;;;;13.88;11.90;;;;;;;;;;4178440;34;20195;-68
2022/02/07 06:03:37;;;;;;;13.20;11.85;;;;;;;;;;4178038;34;20650;-69
2022/02/07 06:06:03;;;;;;;15.40;11.38;;;;;;;;;;4178391;34;20154;-68
2022/02/07 06:08:31;;;;;;;13.93;11.55;;;;;;;;;;4178042;34;20101;-69
2022/02/07 06:11:01;;;;;;;12.70;11.40;;;;;;;;;;4188466;34;20439;-69
2022/02/07 06:13:27;;;;;;;11.70;10.50;;;;;;;;;;4177989;34;20129;-69
2022/02/07 06:15:53;;;;;;;13.88;11.77;;;;;;;;;;4178138;34;20122;-69
2022/02/07 06:18:20;;;;;;;13.73;11.57;;;;;;;;;;4177825;34;20234;-70
2022/02/07 06:20:51;;;;;;;14.25;12.75;;;;;;;;;;4178091;34;20617;-70
2022/02/07 06:23:17;;;;;;;14.07;11.20;;;;;;;;;;4177800;34;20201;-66
2022/02/07 06:25:43;;;;;;;16.33;13.40;;;;;;;;;;4187925;34;20110;-70
2022/02/07 06:28:09;;;;;;;16.55;14.48;;;;;;;;;;4177765;34;20137;-70
2022/02/07 06:30:35;;;;;;;20.88;18.67;;;;;;;;;;4177936;34;20106;-69
2022/02/07 06:33:01;;;;;;;23.42;18.55;;;;;;;;;;4177737;34;20141;-70
2022/02/07 06:35:27;;;;;;;22.62;19.25;;;;;;;;;;4187937;34;20106;-70
2022/02/07 06:37:55;;;;;;;25.15;20.30;;;;;;;;;;4187908;34;20106;-70
2022/02/07 06:40:21;;;;;;;21.92;17.83;;;;;;;;;;4177999;34;20205;-70
2022/02/07 06:42:47;;;;;;;21.73;17.50;;;;;;;;;;4177369;34;20090;-70
2022/02/07 06:45:14;;;;;;;20.25;17.15;;;;;;;;;;4177595;34;20106;-71
2022/02/07 06:47:40;;;;;;;26.75;17.10;;;;;;;;;;4187904;34;20109;-69
2022/02/07 06:50:06;;;;;;;21.27;17.35;;;;;;;;;;4177865;34;20102;-72
2022/02/07 06:52:32;;;;;;;19.45;16.27;;;;;;;;;;4177731;34;20106;-70
2022/02/07 06:54:58;;;;;;;20.12;15.85;;;;;;;;;;4177932;34;20115;-70
2022/02/07 06:57:24;;;;;;;17.10;14.05;;;;;;;;;;4178329;34;20106;-72
2022/02/07 06:59:50;;;;;;;15.80;12.70;;;;;;;;;;4177461;34;20118;-71
2022/02/07 07:02:19;;;;;;;16.65;13.10;;;;;;;;;;4187955;34;20102;-70
2022/02/07 07:04:45;;;;;;;16.08;12.52;;;;;;;;;;4177569;34;20138;-70
2022/02/07 07:07:11;;;;;;;20.12;13.07;;;;;;;;;;4177682;34;20451;-70
2022/02/07 07:09:42;;;;;;;17.95;13.70;;;;;;;;;;4177450;34;20115;-69
2022/02/07 07:12:10;;;;;;;21.17;15.25;;;;;;;;;;4177750;34;20464;-69
2022/02/07 07:14:41;;;;;;;18.40;14.27;;;;;;;;;;4177708;34;20427;-68
2022/02/07 07:17:07;;;;;;;18.45;14.25;;;;;;;;;;4187196;34;20121;-66
2022/02/07 07:19:35;;;;;;;17.52;13.60;;;;;;;;;;4177280;34;20205;-69
2022/02/07 07:22:01;;;;;;;20.90;12.93;;;;;;;;;;4176400;34;20122;-69
2022/02/07 07:24:27;;;;;;;20.52;12.35;;;;;;;;;;4177340;34;20099;-71
2022/02/07 07:26:53;;;;;;;15.15;11.45;;;;;;;;;;4176234;34;20193;-71
2022/02/07 07:29:28;;;;;;;15.65;12.32;;;;;;;;;;4177395;34;20133;-69
2022/02/07 07:32:00;;;;;;;16.60;11.10;;;;;;;;;;4177479;34;20094;-71
2022/02/07 07:34:26;;;;;;;14.45;11.38;;;;;;;;;;4186860;34;20535;-71
2022/02/07 07:36:53;;;;;;;12.77;11.35;;;;;;;;;;4187436;34;20098;-69
2022/02/07 07:39:19;;;;;;;15.55;10.80;;;;;;;;;;4177354;34;20116;-68
2022/02/07 07:41:46;;;;;;;14.60;11.15;;;;;;;;;;4177421;34;20094;-67
2022/02/07 07:44:17;;;;;;;14.80;11.57;;;;;;;;;;4177149;34;20122;-69
2022/02/07 07:46:43;;;;;;;11.73;10.25;;;;;;;;;;4176077;34;20125;-68
2022/02/07 07:49:15;;;;;;;11.57;9.48;;;;;;;;;;4177083;34;20110;-68
2022/02/07 07:51:56;;;;;;;9.68;8.68;;;;;;;;;;4177368;34;20479;-68
2022/02/07 07:55:22;;;;;;;8.75;7.68;;;;;;;;;;4177403;34;20083;-66
2022/02/07 08:02:47;;;;;;;7.87;7.10;;;;;;;;;;4177272;34;20464;-68
2022/02/07 08:05:24;;;;;;;8.45;6.78;;;;;;;;;;4187234;34;20130;-67
2022/02/07 08:07:57;;;;;;;8.82;6.43;;;;;;;;;;4177108;34;20538;-67
2022/02/07 08:13:17;;;;;;;6.95;6.30;;;;;;;;;;4170835;34;20132;-67
2022/02/07 08:15:43;;;;;;;6.70;5.97;;;;;;;;;;4177264;34;20125;-68
2022/02/07 08:18:10;;;;;;;7.10;6.40;;;;;;;;;;4176366;34;20683;-69
2022/02/07 08:20:36;;;;;;;5.93;5.32;;;;;;;;;;4175739;34;20094;-67
2022/02/07 08:23:04;;;;;;;7.57;5.97;;;;;;;;;;4185317;34;20722;-68
2022/02/07 08:25:30;;;;;;;7.32;5.90;;;;;;;;;;4175684;34;20086;-66
2022/02/07 08:27:56;;;;;;;6.43;5.50;;;;;;;;;;4175587;34;20087;-67
2022/02/07 08:30:22;;;;;;;6.47;5.37;;;;;;;;;;4175818;34;20534;-67
2022/02/07 08:32:49;;;;;;;5.87;5.30;;;;;;;;;;4175798;34;20447;-68
2022/02/07 08:35:15;;;;;;;6.15;5.18;;;;;;;;;;4175816;34;20126;-67
2022/02/07 08:37:41;;;;;;;5.68;5.00;;;;;;;;;;4175547;34;20186;-68
2022/02/07 08:40:08;;;;;;;6.20;5.30;;;;;;;;;;4175254;34;20096;-67
2022/02/07 08:42:34;;;;;;;5.97;5.40;;;;;;;;;;4175689;34;20618;-67
2022/02/07 08:45:00;;;;;;;6.10;5.50;;;;;;;;;;4175244;34;20214;-67
2022/02/07 08:47:26;;;;;;;5.97;5.35;;;;;;;;;;4185480;34;20145;-66
2022/02/07 08:49:52;;;;;;;7.20;5.55;;;;;;;;;;4175016;34;20126;-67
2022/02/07 08:52:19;;;;;;;5.45;4.95;;;;;;;;;;4175679;34;20382;-68
2022/02/07 08:54:46;;;;;;;6.03;5.43;;;;;;;;;;4175185;34;20134;-67
2022/02/07 08:57:30;;;;;;;6.03;5.40;;;;;;;;;;4175359;34;20111;-67
2022/02/07 09:00:11;;;;;;;6.10;5.50;;;;;;;;;;4175067;34;20115;-68
2022/02/07 09:08:21;;;;;;;7.22;6.50;;;;;;;;;;4176272;34;20118;-68
2022/02/07 09:10:49;;;;;;;7.35;6.55;;;;;;;;;;4176627;34;20110;-69
2022/02/07 09:13:16;;;;;;;7.57;6.87;;;;;;;;;;4186595;34;20106;-68
2022/02/07 09:15:55;;;;;;;9.23;7.62;;;;;;;;;;4176738;34;20125;-69
2022/02/07 09:18:21;;;;;;;8.25;7.37;;;;;;;;;;4176409;34;20120;-68
2022/02/07 09:20:47;;;;;;;9.85;8.43;;;;;;;;;;4176684;34;20138;-68
2022/02/07 09:23:13;;;;;;;8.63;7.72;;;;;;;;;;4176107;34;20196;-67
2022/02/07 09:25:39;;;;;;;10.10;7.40;;;;;;;;;;4176552;34;20429;-68
2022/02/07 09:28:05;;;;;;;10.00;8.32;;;;;;;;;;4176690;34;20114;-71
2022/02/07 09:30:31;;;;;;;9.93;8.30;;;;;;;;;;4175100;34;20125;-69
2022/02/07 09:32:58;;;;;;;8.48;7.50;;;;;;;;;;4176289;34;20106;-67
2022/02/07 09:35:24;;;;;;;8.48;7.57;;;;;;;;;;4176217;34;20122;-67
2022/02/07 09:37:50;;;;;;;9.13;8.27;;;;;;;;;;4176408;34;20205;-70
2022/02/07 09:40:19;;;;;;;8.85;7.95;;;;;;;;;;4176130;34;20107;-68
2022/02/07 09:42:47;;;;;;;9.45;8.52;;;;;;;;;;4174961;34;20114;-68
2022/02/07 09:45:20;;;;;;;8.93;8.02;;;;;;;;;;4175880;34;20499;-68
2022/02/07 09:47:46;;;;;;;11.75;8.35;;;;;;;;;;4176134;34;20190;-68
2022/02/07 09:50:13;;;;;;;9.38;8.05;;;;;;;;;;4176045;34;20115;-69
2022/02/07 09:52:39;;;;;;;10.63;9.20;;;;;;;;;;4175955;34;20531;-67
2022/02/07 09:55:08;;;;;;;9.88;8.93;;;;;;;;;;4175893;34;20091;-68
2022/02/07 09:57:34;;;;;;;10.10;8.43;;;;;;;;;;4174686;34;20207;-69
2022/02/07 10:00:06;;;;;;;10.10;9.10;;;;;;;;;;4175870;34;20117;-68
2022/02/07 10:02:45;;;;;;;8.55;7.65;;;;;;;;;;4185619;34;20572;-69
2022/02/07 10:05:26;;;;;;;9.82;8.60;;;;;;;;;;4175562;34;20114;-68
2022/02/07 10:08:07;;;;;;;9.38;8.38;;;;;;;;;;4176041;34;20206;-67
2022/02/07 10:10:41;;;;;;;10.30;7.75;;;;;;;;;;4186024;34;20106;-68
2022/02/07 10:13:20;;;;;;;9.55;8.50;;;;;;;;;;4185371;34;20123;-69
2022/02/07 10:46:07;;;;;;;6.50;5.90;;;;;;;;;;4177839;34;20097;-69
2022/02/07 10:48:37;;;;;;;6.70;6.10;;;;;;;;;;4177727;34;20203;-67
2022/02/07 10:51:26;;;;;;;6.03;5.43;;;;;;;;;;4177564;34;20087;-67
2022/02/07 10:53:56;;;;;;;6.97;6.15;;;;;;;;;;4175964;34;20122;-65
2022/02/07 10:56:45;;;;;;;7.30;6.55;;;;;;;;;;4190015;34;20169;-76
2022/02/07 10:59:15;;;;;;;7.40;6.70;;;;;;;;;;4180816;34;20107;-76
2022/02/07 11:04:16;;;;;;;7.78;6.78;;;;;;;;;;4178718;34;20160;-69
2022/02/07 11:06:46;;;;;;;7.12;6.22;;;;;;;;;;4165714;34;20126;-70
2022/02/07 11:09:19;;;;;;;7.22;6.53;;;;;;;;;;4176886;34;20475;-63
2022/02/07 11:11:57;;;;;;;7.20;6.50;;;;;;;;;;4173568;34;20119;-63
2022/02/07 11:20:22;;;;;;;7.35;6.65;;;;;;;;;;4189556;34;20440;-61
2022/02/07 11:23:51;;;;;;;8.00;6.70;;;;;;;;;;4191128;34;20196;-62
2022/02/07 11:28:19;;;;;;;7.05;6.35;;;;;;;;;;4191333;34;20133;-62
2022/02/07 11:31:08;;;;;;;7.50;6.68;;;;;;;;;;4190106;34;20194;-62
2022/02/07 11:36:31;;;;;;;7.10;6.47;;;;;;;;;;4191243;34;20101;-62
2022/02/07 11:39:06;;;;;;;7.68;6.87;;;;;;;;;;4178517;34;20115;-62
2022/02/07 11:42:06;;;;;;;7.37;6.47;;;;;;;;;;4190934;34;20140;-63
2022/02/07 11:44:43;;;;;;;8.45;7.37;;;;;;;;;;4186785;34;20117;-62
2022/02/07 11:47:14;;;;;;;6.50;5.90;;;;;;;;;;4191090;34;20194;-62
2022/02/07 11:49:46;;;;;;;7.45;6.75;;;;;;;;;;4190780;34;20190;-62
2022/02/07 11:52:25;;;;;;;7.03;6.22;;;;;;;;;;4178484;34;20090;-70
2022/02/07 11:54:56;;;;;;;7.00;5.93;;;;;;;;;;4182966;34;20117;-66
2022/02/07 11:57:23;;;;;;;6.07;5.47;;;;;;;;;;4187375;34;20195;-63
2022/02/07 12:00:00;;;;;;;7.37;5.80;;;;;;;;;;4187160;34;20117;-63
2022/02/07 12:02:37;;;;;;;7.10;5.50;;;;;;;;;;4175975;34;20121;-63
2022/02/07 12:05:08;;;;;;;6.32;5.57;;;;;;;;;;4175441;34;20092;-63
2022/02/07 12:07:39;;;;;;;7.15;6.37;;;;;;;;;;4175712;34;20126;-64
2022/02/07 12:12:47;;;;;;;8.90;7.85;;;;;;;;;;4177066;34;20134;-63
2022/02/07 12:15:13;;;;;;;13.13;8.30;;;;;;;;;;4175856;34;20133;-62
2022/02/07 12:17:49;;;;;;;9.98;8.98;;;;;;;;;;4177082;34;20499;-61
2022/02/07 12:20:21;;;;;;;7.72;6.68;;;;;;;;;;4175861;34;20480;-63
2022/02/07 12:22:55;;;;;;;6.97;6.28;;;;;;;;;;4177221;34;20110;-62
2022/02/07 12:25:47;;;;;;;8.10;7.25;;;;;;;;;;4176924;34;20562;-61
2022/02/07 12:31:28;;;;;;;7.15;6.45;;;;;;;;;;4176749;34;20153;-63
2022/02/07 12:33:59;;;;;;;8.60;6.75;;;;;;;;;;4175864;34;20137;-63
2022/02/07 12:36:27;;;;;;;9.65;7.37;;;;;;;;;;4176903;34;20111;-61
2022/02/07 12:38:54;;;;;;;8.68;6.55;;;;;;;;;;4176772;34;20285;-63
2022/02/07 12:41:23;;;;;;;8.35;6.90;;;;;;;;;;4176177;34;20145;-62
2022/02/07 12:43:50;;;;;;;7.15;6.45;;;;;;;;;;4176689;34;20111;-61
2022/02/07 12:46:22;;;;;;;7.55;6.75;;;;;;;;;;4175573;34;20197;-61
2022/02/07 12:48:54;;;;;;;8.18;7.37;;;;;;;;;;4176779;34;20102;-62
2022/02/07 12:51:21;;;;;;;9.43;6.60;;;;;;;;;;4176787;34;20137;-62
2022/02/07 12:53:48;;;;;;;7.60;6.90;;;;;;;;;;4176592;34;20122;-64
2022/02/07 12:56:14;;;;;;;8.13;7.32;;;;;;;;;;4176746;34;20094;-64
2022/02/07 12:58:43;;;;;;;9.80;7.43;;;;;;;;;;4176683;34;20115;-62
2022/02/07 13:01:25;;;;;;;9.82;7.90;;;;;;;;;;4175732;34;20436;-63
2022/02/07 13:03:52;;;;;;;7.10;6.50;;;;;;;;;;4175014;34;20099;-60
2022/02/07 13:06:24;;;;;;;6.95;6.25;;;;;;;;;;4176496;34;20262;-61
2022/02/07 13:08:50;;;;;;;7.18;6.47;;;;;;;;;;4175222;34;20468;-62
2022/02/07 13:11:30;;;;;;;7.55;6.85;;;;;;;;;;4176563;34;20207;-62
2022/02/07 13:13:57;;;;;;;8.35;6.85;;;;;;;;;;4176550;34;20211;-63
2022/02/07 13:16:23;;;;;;;7.68;6.85;;;;;;;;;;4176548;34;20560;-62
2022/02/07 13:18:50;;;;;;;7.72;6.93;;;;;;;;;;4176317;34;20170;-62
2022/02/07 13:21:18;;;;;;;9.05;8.20;;;;;;;;;;4176407;34;20115;-62
2022/02/07 13:23:46;;;;;;;9.13;7.40;;;;;;;;;;4176345;34;20095;-63
2022/02/07 13:26:14;;;;;;;10.35;8.15;;;;;;;;;;4176393;34;20105;-63
2022/02/07 13:28:42;;;;;;;7.82;6.93;;;;;;;;;;4176388;34;20215;-62
2022/02/07 13:31:10;;;;;;;9.95;8.25;;;;;;;;;;4176360;34;20115;-63
2022/02/07 13:34:17;;;;;;;9.32;8.30;;;;;;;;;;4176278;34;20117;-63
2022/02/07 13:36:48;;;;;;;9.80;8.80;;;;;;;;;;4174222;34;20126;-62
2022/02/07 13:39:15;;;;;;;8.68;7.10;;;;;;;;;;4176157;34;20110;-62
2022/02/07 13:41:41;;;;;;;9.43;8.45;;;;;;;;;;4176262;34;20102;-62
2022/02/07 13:44:08;;;;;;;10.98;9.88;;;;;;;;;;4176296;34;20437;-62
2022/02/07 13:46:34;;;;;;;8.32;7.35;;;;;;;;;;4185979;34;20137;-62
2022/02/07 13:49:01;;;;;;;8.95;7.03;;;;;;;;;;4176068;34;20119;-61
2022/02/07 13:51:29;;;;;;;8.20;7.40;;;;;;;;;;4176113;34;20107;-61
2022/02/07 13:53:58;;;;;;;10.18;8.95;;;;;;;;;;4177748;34;20119;-62
2022/02/07 13:56:29;;;;;;;7.93;7.12;;;;;;;;;;4178240;34;20189;-62
2022/02/07 13:58:56;;;;;;;7.32;6.62;;;;;;;;;;4176883;34;20118;-62
2022/02/07 14:01:26;;;;;;;8.23;7.00;;;;;;;;;;4178149;34;20114;-62
2022/02/07 14:03:57;;;;;;;7.72;6.93;;;;;;;;;;4177823;34;20142;-61
2022/02/07 14:06:25;;;;;;;7.70;7.00;;;;;;;;;;4178033;34;20141;-62
2022/02/07 14:08:55;;;;;;;8.30;7.37;;;;;;;;;;4178103;34;20110;-64
2022/02/07 14:11:24;;;;;;;7.82;6.40;;;;;;;;;;4178013;34;20099;-61
2022/02/07 14:13:52;;;;;;;8.32;7.53;;;;;;;;;;4187908;34;20125;-62
2022/02/07 14:16:21;;;;;;;8.98;8.07;;;;;;;;;;4178209;34;20125;-61
2022/02/07 14:18:48;;;;;;;9.18;8.27;;;;;;;;;;4177897;34;20466;-61
2022/02/07 14:21:17;;;;;;;8.40;7.50;;;;;;;;;;4177996;34;20121;-61
2022/02/07 14:23:48;;;;;;;8.02;7.22;;;;;;;;;;4177797;34;20126;-62
2022/02/07 14:26:17;;;;;;;8.05;7.32;;;;;;;;;;4177945;34;20506;-62
2022/02/07 14:28:46;;;;;;;8.45;7.65;;;;;;;;;;4177598;34;20254;-62
2022/02/07 14:31:12;;;;;;;8.77;7.87;;;;;;;;;;4177873;34;20519;-63
2022/02/07 14:33:39;;;;;;;10.23;8.25;;;;;;;;;;4177741;34;20090;-63
2022/02/07 14:36:06;;;;;;;9.52;7.70;;;;;;;;;;4177844;34;20129;-62
2022/02/07 14:38:32;;;;;;;8.30;7.60;;;;;;;;;;4177578;34;20107;-63
2022/02/07 14:40:58;;;;;;;9.07;7.18;;;;;;;;;;4178046;34;20199;-62
2022/02/07 14:43:32;;;;;;;8.25;7.45;;;;;;;;;;4177705;34;20211;-61
2022/02/07 14:46:08;;;;;;;8.27;7.43;;;;;;;;;;4177772;34;20110;-62
2022/02/07 14:48:35;;;;;;;;;;;;;;;;;;4178024;34;20609;-62
2022/02/07 14:51:03;;;;;;;8.35;7.50;;;;;;;;;;4177615;34;19998;-62
2022/02/07 14:53:29;;;;;;;8.68;7.62;;;;;;;;;;4177534;34;20129;-62
2022/02/07 14:55:55;;;;;;;8.57;7.60;;;;;;;;;;4176155;34;20462;-61
2022/02/07 14:58:21;;;;;;;8.68;7.78;;;;;;;;;;4177475;34;20126;-63
2022/02/07 15:00:48;;;;;;;8.15;7.45;;;;;;;;;;4176145;34;20138;-62
2022/02/07 15:03:17;;;;;;;7.75;7.03;;;;;;;;;;4176740;34;20091;-62
2022/02/07 15:05:43;;;;;;;8.63;7.50;;;;;;;;;;4175314;34;20110;-61
2022/02/07 15:08:09;;;;;;;7.85;7.05;;;;;;;;;;4176944;34;20117;-61
2022/02/07 15:10:37;;;;;;;8.00;7.20;;;;;;;;;;4177710;34;20126;-61
2022/02/07 15:13:05;;;;;;;7.90;7.15;;;;;;;;;;4164763;34;20173;-62
2022/02/07 15:15:32;;;;;;;8.00;7.20;;;;;;;;;;4162484;34;20110;-61
2022/02/07 15:18:02;;;;;;;8.20;7.40;;;;;;;;;;4178242;34;20186;-62
2022/02/07 15:20:29;;;;;;;8.57;7.68;;;;;;;;;;4190921;34;20218;-64
2022/02/07 15:22:55;;;;;;;7.62;6.93;;;;;;;;;;4191018;34;20181;-62
2022/02/07 15:25:31;;;;;;;7.82;7.12;;;;;;;;;;4191280;34;20149;-62
2022/02/07 15:27:59;;;;;;;8.45;7.55;;;;;;;;;;4191115;34;20297;-62
2022/02/07 15:30:30;;;;;;;8.35;7.07;;;;;;;;;;4191147;34;20130;-62
2022/02/07 15:32:59;;;;;;;8.50;7.70;;;;;;;;;;4190855;34;20130;-69
2022/02/07 15:35:25;;;;;;;8.98;7.07;;;;;;;;;;4191203;34;20522;-72
2022/02/07 15:37:51;;;;;;;8.32;7.55;;;;;;;;;;4186176;34;20166;-64
2022/02/07 15:40:17;;;;;;;7.97;7.18;;;;;;;;;;4177258;34;20144;-64
2022/02/07 15:42:43;;;;;;;8.68;7.78;;;;;;;;;;4180279;34;20118;-64
2022/02/07 15:45:11;;;;;;;8.27;7.20;;;;;;;;;;4190869;34;20130;-63
2022/02/07 15:47:40;;;;;;;8.13;7.32;;;;;;;;;;4189116;34;20089;-63
2022/02/07 15:50:08;;;;;;;8.45;7.00;;;;;;;;;;4190550;34;20154;-64
2022/02/07 15:52:38;;;;;;;6.90;6.30;;;;;;;;;;4182890;34;20110;-65
2022/02/07 15:55:05;;;;;;;8.40;7.60;;;;;;;;;;4176887;34;20150;-62
2022/02/07 15:57:31;;;;;;;7.90;7.20;;;;;;;;;;4176647;34;20507;-62
2022/02/07 15:59:57;;;;;;;7.87;7.12;;;;;;;;;;4176946;34;20526;-63
2022/02/07 16:02:30;;;;;;;7.53;6.82;;;;;;;;;;4177092;34;20155;-65
2022/02/07 16:04:59;;;;;;;7.68;6.90;;;;;;;;;;4176837;34;20210;-63
2022/02/07 16:07:26;;;;;;;7.55;6.82;;;;;;;;;;4177103;34;20110;-61
2022/02/07 16:09:53;;;;;;;8.82;8.00;;;;;;;;;;4177139;34;20210;-63
2022/02/07 16:12:20;;;;;;;8.77;7.10;;;;;;;;;;4175901;34;20719;-63
2022/02/07 16:14:47;;;;;;;8.50;7.60;;;;;;;;;;4177045;34;20539;-63
2022/02/07 16:17:14;;;;;;;8.25;7.45;;;;;;;;;;4176200;34;20535;-62
2022/02/07 16:19:40;;;;;;;8.88;7.97;;;;;;;;;;4177004;34;20102;-63
2022/02/07 16:22:10;;;;;;;8.93;8.02;;;;;;;;;;4176904;34;20187;-64
2022/02/07 16:24:37;;;;;;;8.80;7.87;;;;;;;;;;4186724;34;20186;-63
2022/02/07 16:27:03;;;;;;;8.63;7.72;;;;;;;;;;4176812;34;20519;-63
2022/02/07 16:29:29;;;;;;;8.77;7.87;;;;;;;;;;4175580;34;20113;-63
2022/02/07 16:31:55;;;;;;;8.98;7.62;;;;;;;;;;4176749;34;20130;-63
2022/02/07 16:34:23;;;;;;;10.57;9.52;;;;;;;;;;4176760;34;20122;-63
2022/02/07 16:36:50;;;;;;;8.40;7.60;;;;;;;;;;4176691;34;20109;-64
2022/02/07 16:39:20;;;;;;;8.35;7.55;;;;;;;;;;4175482;34;20135;-63
2022/02/07 16:41:47;;;;;;;10.25;7.93;;;;;;;;;;4176718;34;20576;-62
2022/02/07 16:44:13;;;;;;;8.98;8.07;;;;;;;;;;4176828;34;20106;-61
2022/02/07 16:46:50;;;;;;;8.75;7.85;;;;;;;;;;4176765;34;20103;-61
2022/02/07 16:49:22;;;;;;;8.93;8.02;;;;;;;;;;4176612;34;20126;-61
2022/02/07 16:51:50;;;;;;;7.93;7.12;;;;;;;;;;4175142;34;20524;-61
2022/02/07 16:54:17;;;;;;;8.75;7.95;;;;;;;;;;4175191;34;20114;-61
2022/02/07 16:56:43;;;;;;;8.82;7.93;;;;;;;;;;4175244;34;20540;-63
2022/02/07 16:59:10;;;;;;;8.75;7.85;;;;;;;;;;4176851;34;20110;-71
2022/02/07 17:01:37;;;;;;;8.40;7.53;;;;;;;;;;4176691;34;20436;-68
2022/02/07 17:04:04;;;;;;;8.07;7.12;;;;;;;;;;4176455;34;20193;-65
2022/02/07 17:06:30;;;;;;;8.48;7.68;;;;;;;;;;4175239;34;20490;-65
2022/02/07 17:08:56;;;;;;;8.65;7.85;;;;;;;;;;4176588;34;20133;-62
2022/02/07 17:11:24;;;;;;;10.02;8.90;;;;;;;;;;4176668;34;20130;-62
2022/02/07 17:13:50;;;;;;;8.80;7.90;;;;;;;;;;4175436;34;20110;-63
2022/02/07 17:16:17;;;;;;;8.88;7.50;;;;;;;;;;4153091;34;20110;-62
2022/02/07 17:18:44;;;;;;;8.88;7.18;;;;;;;;;;4176598;34;20194;-62
2022/02/07 17:21:10;;;;;;;12.25;9.18;;;;;;;;;;4175366;34;20626;-63
2022/02/07 17:23:37;;;;;;;9.85;8.85;;;;;;;;;;4176138;34;20118;-63
2022/02/07 17:26:05;;;;;;;12.25;10.60;;;;;;;;;;4176331;34;20106;-63
2022/02/07 17:28:32;;;;;;;9.23;8.32;;;;;;;;;;4177906;34;20190;-61
2022/02/07 17:30:59;;;;;;;10.98;8.27;;;;;;;;;;4178561;34;20831;-62